Kooskia, ID

9:38 AM PDT on September 03, 2015 (GMT -0700)
WB6DHW-Kidder Ridge above Kooskia | | Change Station
CLOSE
Current Station
Personal Weather Station
Location: Kooskia, ID
Elevation: 2858 ft
Nearby Weather Stations

Elev 2858 ft 46.18 °N, 115.96 °W | Updated 10 seconds ago

Overcast
Overcast
52.3 °F
Feels Like 52.3 °F
N
0.0
Wind Variable Wind from NE
Gusts 0.0 mph

Today
High -- | Low -- °F
--% Chance of Precip.
Yesterday
High -- | Low -- °F
Precip. -- in
6:06 AM 7:18 PM
Waning Gibbous, 69% visible
Pressure 29.98 in
Visibility 10.0 miles
Clouds Mostly Cloudy 500 ft
Mostly Cloudy 1300 ft
Overcast 2200 ft
Dew Point 51 °F
Humidity 95%
Rainfall 0.18 in
Snow Depth Not available.
UV 2.0 out of 12
Pollen 6.80 out of 12
Air Quality Not available.
Flu Activity Not available.
METAR KGIC 031615Z AUTO 01006KT 10SM BKN005 BKN013 OVC022 10/09 A2998 RMK AO1 T00990091
Pressure 29.98 in
Visibility 10.0 miles
Clouds Mostly Cloudy 500 ft
Mostly Cloudy 1300 ft
Overcast 2200 ft
Dew Point 51 °F
Humidity 95%
Rainfall 0.18 in
Snow Depth Not available.
UV 2.0 out of 12
Pollen 6.80 out of 12
Air Quality Not available.
Flu Activity Not available.
METAR KGIC 031615Z AUTO 01006KT 10SM BKN005 BKN013 OVC022 10/09 A2998 RMK AO1 T00990091

10-Day Weather Forecast

×

Almanac

Astronomy

Sep. 03, 2015 Rise Set
Actual Time
Civil Twilight
Nautical Twilight
Astronomical Twilight
Moon
Length of Visible Light
Length of Day
Tomorrow will be .
, % of the Moon is Illuminated

Today's Extremes

State Highs State Lows

Community

WunderPhotos

Upload Photos

1,851,988 photos uploaded!

WunderBlogs® & News

Nearby

Air Quality

  Air Quality AQ Index Pollutant
Not available.

Snow Depth

Station Depth Elevation

Earthquake Activity

City Distance Mag. Time & Date
Minimum magnitude displayed is 2.5.

Coastal Water Temperatures

Place Temperature

Stations

Nearby Weather Stations

Station Location Temp. Windchill Dew Point Humidity Wind Precip. Elev Updated Type